Back to Top

Language: 

My Weather Underground Personal Weather Station Historical Data with Graphs...

Delerius Weather Station Historical Data
Daily Summary for June 21, 2017 Units:  English    Metric   Both
« Previous Day
Next Day »
Daily Weekly Monthly Yearly Custom
  High: Low: Average:
Temperature: 82.4 °F 56.5 °F 68.9 °F
Dew Point: 69.3 °F 53.0 °F 61 °F
Humidity: 91 % 49 % 77 %
Wind Speed: 10.0 mph 0.0 mph 4.5 mph
Wind Gust: 19.0 mph - -
Wind:- - SE
Pressure: 30.12 in 29.77 in -
Precipitation: 0.02 in    
Historical Graphs
 
 
Tabular Data for June 21, 2017
Time Temperature Dew Point Pressure Wind Wind Speed Wind Gust Humidity Rainfall Rate (Hourly) solar Conditions
00:01 59.2 °F 55.9 °F 30.11 in ESE 3.0 mph 6.0 mph 89 % 0.00 in 0 W/m2
00:06 59.0 °F 55.8 °F 30.11 in ESE 4.0 mph 9.0 mph 89 % 0.00 in 0 W/m2
00:11 58.8 °F 55.3 °F 30.11 in ESE 5.0 mph 13.0 mph 88 % 0.00 in 0 W/m2
00:16 58.8 °F 55.3 °F 30.12 in ESE 5.0 mph 13.0 mph 88 % 0.00 in 0 W/m2
00:21 58.8 °F 55.3 °F 30.12 in ESE 4.0 mph 8.0 mph 88 % 0.00 in 0 W/m2
00:26 58.8 °F 55.0 °F 30.11 in ESE 5.0 mph 9.0 mph 87 % 0.00 in 0 W/m2
00:31 58.8 °F 54.6 °F 30.12 in ESE 6.0 mph 9.0 mph 86 % 0.00 in 0 W/m2
00:36 58.8 °F 54.6 °F 30.12 in ESE 6.0 mph 9.0 mph 86 % 0.00 in 0 W/m2
00:41 58.8 °F 54.6 °F 30.12 in ESE 5.0 mph 9.0 mph 86 % 0.00 in 0 W/m2
00:46 58.6 °F 54.5 °F 30.12 in ESE 5.0 mph 9.0 mph 86 % 0.00 in 0 W/m2
00:51 58.6 °F 54.5 °F 30.12 in ESE 5.0 mph 9.0 mph 86 % 0.00 in 0 W/m2
00:56 58.6 °F 54.1 °F 30.11 in ESE 6.0 mph 10.0 mph 85 % 0.00 in 0 W/m2
01:01 58.6 °F 54.5 °F 30.11 in ESE 6.0 mph 10.0 mph 86 % 0.00 in 0 W/m2
01:06 58.6 °F 54.5 °F 30.11 in ESE 5.0 mph 10.0 mph 86 % 0.00 in 0 W/m2
01:11 58.6 °F 54.5 °F 30.11 in SE 6.0 mph 10.0 mph 86 % 0.00 in 0 W/m2
01:16 58.6 °F 54.5 °F 30.11 in SE 6.0 mph 10.0 mph 86 % 0.00 in 0 W/m2
01:21 58.6 °F 54.5 °F 30.11 in SE 6.0 mph 9.0 mph 86 % 0.00 in 0 W/m2
01:26 58.6 °F 54.5 °F 30.11 in SE 4.0 mph 9.0 mph 86 % 0.00 in 0 W/m2
01:31 58.6 °F 54.5 °F 30.11 in SE 4.0 mph 9.0 mph 86 % 0.00 in 0 W/m2
01:37 58.6 °F 54.5 °F 30.11 in SE 5.0 mph 9.0 mph 86 % 0.00 in 0 W/m2
01:42 58.5 °F 54.3 °F 30.10 in SE 5.0 mph 11.0 mph 86 % 0.00 in 0 W/m2
01:47 58.5 °F 54.3 °F 30.10 in SE 5.0 mph 11.0 mph 86 % 0.00 in 0 W/m2
01:52 58.5 °F 54.3 °F 30.10 in SE 5.0 mph 9.0 mph 86 % 0.00 in 0 W/m2
01:57 58.5 °F 54.3 °F 30.10 in SE 5.0 mph 9.0 mph 86 % 0.00 in 0 W/m2
02:02 58.3 °F 54.1 °F 30.10 in ESE 5.0 mph 9.0 mph 86 % 0.00 in 0 W/m2
02:07 58.3 °F 54.1 °F 30.10 in ESE 4.0 mph 8.0 mph 86 % 0.00 in 0 W/m2
02:12 58.3 °F 54.1 °F 30.10 in ESE 4.0 mph 8.0 mph 86 % 0.00 in 0 W/m2
02:17 58.3 °F 54.1 °F 30.09 in ESE 4.0 mph 8.0 mph 86 % 0.00 in 0 W/m2
02:22 58.3 °F 54.1 °F 30.09 in ESE 4.0 mph 8.0 mph 86 % 0.00 in 0 W/m2
02:27 58.3 °F 54.1 °F 30.09 in ESE 3.0 mph 8.0 mph 86 % 0.00 in 0 W/m2
02:32 58.3 °F 54.1 °F 30.09 in ESE 4.0 mph 8.0 mph 86 % 0.00 in 0 W/m2
02:37 58.3 °F 54.1 °F 30.08 in ESE 4.0 mph 9.0 mph 86 % 0.00 in 0 W/m2
02:42 58.3 °F 54.1 °F 30.09 in ESE 4.0 mph 9.0 mph 86 % 0.00 in 0 W/m2
02:48 58.3 °F 54.1 °F 30.08 in ESE 4.0 mph 8.0 mph 86 % 0.00 in 0 W/m2
02:53 58.3 °F 54.1 °F 30.08 in ESE 5.0 mph 9.0 mph 86 % 0.00 in 0 W/m2
02:58 58.3 °F 54.1 °F 30.08 in ESE 6.0 mph 9.0 mph 86 % 0.00 in 0 W/m2
03:03 58.3 °F 53.8 °F 30.07 in ESE 6.0 mph 10.0 mph 85 % 0.00 in 0 W/m2
03:08 58.1 °F 53.6 °F 30.07 in ESE 6.0 mph 10.0 mph 85 % 0.00 in 0 W/m2
03:13 57.9 °F 53.4 °F 30.07 in ESE 7.0 mph 10.0 mph 85 % 0.00 in 0 W/m2
03:18 57.9 °F 53.4 °F 30.08 in SE 6.0 mph 10.0 mph 85 % 0.00 in 0 W/m2
03:23 57.7 °F 53.6 °F 30.08 in SE 5.0 mph 9.0 mph 86 % 0.00 in 0 W/m2
03:28 57.7 °F 53.6 °F 30.08 in SE 5.0 mph 9.0 mph 86 % 0.00 in 0 W/m2
03:33 57.7 °F 53.6 °F 30.08 in SE 5.0 mph 9.0 mph 86 % 0.00 in 0 W/m2
03:38 57.7 °F 53.6 °F 30.08 in SE 4.0 mph 8.0 mph 86 % 0.00 in 0 W/m2
03:43 57.6 °F 53.4 °F 30.08 in SE 4.0 mph 9.0 mph 86 % 0.00 in 0 W/m2
03:48 57.6 °F 53.4 °F 30.07 in SE 4.0 mph 9.0 mph 86 % 0.00 in 0 W/m2
03:53 57.6 °F 53.4 °F 30.07 in SE 4.0 mph 9.0 mph 86 % 0.00 in 0 W/m2
03:58 57.4 °F 53.2 °F 30.07 in ESE 5.0 mph 8.0 mph 86 % 0.00 in 0 W/m2
04:03 57.4 °F 53.5 °F 30.08 in ESE 4.0 mph 8.0 mph 87 % 0.00 in 0 W/m2
04:08 57.2 °F 53.4 °F 30.08 in ESE 3.0 mph 7.0 mph 87 % 0.00 in 0 W/m2
04:13 57.2 °F 53.4 °F 30.07 in ESE 2.0 mph 7.0 mph 87 % 0.00 in 0 W/m2
04:18 57.2 °F 53.4 °F 30.07 in ESE 2.0 mph 5.0 mph 87 % 0.00 in 0 W/m2
04:23 57.0 °F 53.2 °F 30.07 in ESE 2.0 mph 5.0 mph 87 % 0.00 in 0 W/m2
04:28 56.8 °F 53.0 °F 30.07 in ESE 2.0 mph 6.0 mph 87 % 0.00 in 0 W/m2
04:33 56.8 °F 53.3 °F 30.07 in ESE 4.0 mph 7.0 mph 88 % 0.00 in 0 W/m2
04:38 56.7 °F 53.1 °F 30.08 in ESE 3.0 mph 7.0 mph 88 % 0.00 in 0 W/m2
04:43 56.7 °F 53.1 °F 30.08 in ESE 2.0 mph 6.0 mph 88 % 0.00 in 5 W/m2
04:48 56.5 °F 53.0 °F 30.08 in ESE 2.0 mph 5.0 mph 88 % 0.00 in 7 W/m2
04:53 56.5 °F 53.0 °F 30.08 in ESE 1.0 mph 5.0 mph 88 % 0.00 in 9 W/m2
04:58 56.5 °F 53.0 °F 30.08 in SE 1.0 mph 4.0 mph 88 % 0.00 in 11 W/m2
05:03 56.5 °F 53.3 °F 30.08 in ESE 1.0 mph 4.0 mph 89 % 0.00 in 12 W/m2
05:08 56.5 °F 53.3 °F 30.08 in ESE 2.0 mph 5.0 mph 89 % 0.00 in 16 W/m2
05:13 56.5 °F 53.3 °F 30.08 in ESE 2.0 mph 5.0 mph 89 % 0.00 in 18 W/m2
05:18 56.5 °F 53.3 °F 30.08 in ESE 2.0 mph 5.0 mph 89 % 0.00 in 19 W/m2
05:23 56.5 °F 53.3 °F 30.08 in ESE 1.0 mph 5.0 mph 89 % 0.00 in 19 W/m2
05:28 56.7 °F 53.5 °F 30.08 in ESE 1.0 mph 4.0 mph 89 % 0.00 in 23 W/m2
05:33 56.5 °F 53.3 °F 30.08 in ESE 2.0 mph 5.0 mph 89 % 0.00 in 28 W/m2
05:38 56.5 °F 53.3 °F 30.08 in East 2.0 mph 5.0 mph 89 % 0.00 in 32 W/m2
05:43 56.5 °F 53.3 °F 30.08 in ESE 2.0 mph 5.0 mph 89 % 0.00 in 35 W/m2
05:48 56.7 °F 53.5 °F 30.08 in ESE 2.0 mph 5.0 mph 89 % 0.00 in 33 W/m2
05:53 56.7 °F 53.5 °F 30.08 in ESE 2.0 mph 6.0 mph 89 % 0.00 in 35 W/m2
05:58 56.7 °F 53.5 °F 30.08 in ESE 3.0 mph 6.0 mph 89 % 0.00 in 35 W/m2
06:04 56.7 °F 53.5 °F 30.07 in SE 4.0 mph 7.0 mph 89 % 0.00 in 37 W/m2
06:09 56.7 °F 53.1 °F 30.07 in SE 3.0 mph 7.0 mph 88 % 0.00 in 47 W/m2
06:14 56.5 °F 53.0 °F 30.07 in ESE 4.0 mph 7.0 mph 88 % 0.00 in 58 W/m2
06:19 56.7 °F 53.5 °F 30.07 in ESE 4.0 mph 7.0 mph 89 % 0.00 in 60 W/m2
06:24 56.7 °F 53.5 °F 30.06 in SE 4.0 mph 7.0 mph 89 % 0.00 in 72 W/m2
06:29 56.7 °F 53.5 °F 30.06 in SE 4.0 mph 8.0 mph 89 % 0.00 in 69 W/m2
06:34 56.8 °F 53.6 °F 30.06 in SE 4.0 mph 8.0 mph 89 % 0.00 in 72 W/m2
06:39 57.0 °F 53.8 °F 30.06 in SE 3.0 mph 7.0 mph 89 % 0.00 in 79 W/m2
06:44 57.0 °F 53.5 °F 30.06 in SE 4.0 mph 7.0 mph 88 % 0.00 in 79 W/m2
06:49 57.2 °F 53.7 °F 30.05 in SE 5.0 mph 7.0 mph 88 % 0.00 in 84 W/m2
06:54 57.4 °F 53.9 °F 30.05 in SSE 4.0 mph 7.0 mph 88 % 0.00 in 100 W/m2
06:59 57.6 °F 54.0 °F 30.05 in SSE 4.0 mph 8.0 mph 88 % 0.00 in 107 W/m2
07:04 57.7 °F 54.2 °F 30.05 in SE 5.0 mph 9.0 mph 88 % 0.00 in 105 W/m2
07:09 57.9 °F 54.4 °F 30.05 in SE 5.0 mph 9.0 mph 88 % 0.00 in 105 W/m2
07:14 58.3 °F 54.4 °F 30.04 in SE 5.0 mph 9.0 mph 87 % 0.00 in 146 W/m2
07:19 58.5 °F 54.6 °F 30.04 in SE 5.0 mph 8.0 mph 87 % 0.00 in 209 W/m2
07:24 58.8 °F 54.6 °F 30.04 in SE 5.0 mph 8.0 mph 86 % 0.00 in 227 W/m2
07:29 59.4 °F 54.8 °F 30.04 in SE 6.0 mph 12.0 mph 85 % 0.00 in 260 W/m2
07:34 59.7 °F 55.2 °F 30.03 in SE 6.0 mph 12.0 mph 85 % 0.00 in 279 W/m2
07:39 60.1 °F 55.2 °F 30.03 in SE 7.0 mph 11.0 mph 84 % 0.00 in 325 W/m2
07:44 60.6 °F 55.4 °F 30.02 in SE 8.0 mph 15.0 mph 83 % 0.00 in 346 W/m2
07:49 61.0 °F 55.4 °F 30.02 in SE 8.0 mph 15.0 mph 82 % 0.00 in 381 W/m2
07:54 61.3 °F 55.8 °F 30.02 in SE 7.0 mph 12.0 mph 82 % 0.00 in 371 W/m2
07:59 61.7 °F 55.8 °F 30.02 in SE 7.0 mph 12.0 mph 81 % 0.00 in 141 W/m2
08:04 61.5 °F 55.6 °F 30.02 in SE 7.0 mph 12.0 mph 81 % 0.00 in 295 W/m2
08:09 61.5 °F 55.6 °F 30.02 in SE 8.0 mph 12.0 mph 81 % 0.00 in 427 W/m2
08:14 61.9 °F 56.0 °F 30.02 in SE 8.0 mph 12.0 mph 81 % 0.00 in 411 W/m2
08:19 62.1 °F 56.2 °F 30.01 in SSE 7.0 mph 12.0 mph 81 % 0.00 in 223 W/m2
08:24 62.4 °F 56.2 °F 30.01 in SSE 7.0 mph 14.0 mph 80 % 0.00 in 221 W/m2
08:29 62.4 °F 56.2 °F 30.01 in SSE 8.0 mph 14.0 mph 80 % 0.00 in 269 W/m2
08:34 62.2 °F 56.0 °F 30.02 in SSE 9.0 mph 13.0 mph 80 % 0.00 in 176 W/m2
08:39 62.4 °F 56.5 °F 30.02 in SSE 8.0 mph 13.0 mph 81 % 0.00 in 452 W/m2
08:44 63.0 °F 57.0 °F 30.02 in SSE 6.0 mph 13.0 mph 81 % 0.00 in 427 W/m2
08:50 63.3 °F 57.0 °F 30.02 in SSE 6.0 mph 13.0 mph 80 % 0.00 in 397 W/m2
08:55 63.9 °F 57.2 °F 30.02 in SSE 6.0 mph 13.0 mph 79 % 0.00 in 483 W/m2
09:00 64.2 °F 57.2 °F 30.02 in SSE 5.0 mph 9.0 mph 78 % 0.00 in 431 W/m2
09:05 64.6 °F 57.2 °F 30.02 in SSE 5.0 mph 9.0 mph 77 % 0.00 in 489 W/m2
09:10 64.9 °F 57.6 °F 30.02 in SSE 4.0 mph 9.0 mph 77 % 0.00 in 471 W/m2
09:15 65.5 °F 58.1 °F 30.01 in SSE 3.0 mph 8.0 mph 77 % 0.00 in 445 W/m2
09:20 65.8 °F 57.7 °F 30.02 in SSE 3.0 mph 7.0 mph 75 % 0.00 in 427 W/m2
09:25 66.4 °F 58.2 °F 30.01 in South 2.0 mph 6.0 mph 75 % 0.00 in 515 W/m2
09:30 66.6 °F 58.4 °F 30.01 in SSE 3.0 mph 9.0 mph 75 % 0.00 in 431 W/m2
09:35 66.9 °F 58.7 °F 30.00 in SSE 5.0 mph 10.0 mph 75 % 0.00 in 726 W/m2
09:40 67.5 °F 58.9 °F 30.00 in SE 5.0 mph 10.0 mph 74 % 0.00 in 439 W/m2
09:45 67.5 °F 58.9 °F 30.00 in SE 5.0 mph 9.0 mph 74 % 0.00 in 320 W/m2
09:50 67.3 °F 58.7 °F 30.01 in SE 6.0 mph 9.0 mph 74 % 0.00 in 272 W/m2
09:55 67.3 °F 58.7 °F 30.00 in SE 5.0 mph 9.0 mph 74 % 0.00 in 294 W/m2
10:00 67.5 °F 58.9 °F 30.00 in SE 5.0 mph 9.0 mph 74 % 0.00 in 373 W/m2
10:05 67.6 °F 59.1 °F 30.01 in SE 5.0 mph 9.0 mph 74 % 0.00 in 399 W/m2
10:10 67.8 °F 59.2 °F 30.00 in SE 5.0 mph 9.0 mph 74 % 0.00 in 336 W/m2
10:15 67.8 °F 59.2 °F 30.00 in SE 6.0 mph 10.0 mph 74 % 0.00 in 682 W/m2
10:20 68.4 °F 59.7 °F 30.00 in SE 7.0 mph 10.0 mph 74 % 0.00 in 650 W/m2
10:25 68.7 °F 59.7 °F 30.00 in SSE 6.0 mph 10.0 mph 73 % 0.00 in 717 W/m2
10:30 69.3 °F 60.6 °F 29.99 in SE 5.0 mph 11.0 mph 74 % 0.00 in 821 W/m2
10:35 70.2 °F 61.1 °F 29.99 in SE 5.0 mph 11.0 mph 73 % 0.00 in 849 W/m2
10:40 70.5 °F 60.7 °F 29.99 in SE 6.0 mph 10.0 mph 71 % 0.00 in 554 W/m2
10:45 70.3 °F 60.5 °F 29.99 in SSE 7.0 mph 13.0 mph 71 % 0.00 in 362 W/m2
10:51 70.3 °F 60.5 °F 29.98 in SE 7.0 mph 13.0 mph 71 % 0.00 in 577 W/m2
10:56 70.5 °F 61.1 °F 29.98 in SE 7.0 mph 12.0 mph 72 % 0.00 in 649 W/m2
11:01 71.1 °F 61.2 °F 29.98 in SE 8.0 mph 12.0 mph 71 % 0.00 in 508 W/m2
11:06 70.9 °F 61.4 °F 29.98 in SE 7.0 mph 11.0 mph 72 % 0.00 in 404 W/m2
11:11 71.1 °F 61.2 °F 29.98 in SE 7.0 mph 12.0 mph 71 % 0.00 in 675 W/m2
11:16 71.2 °F 61.4 °F 29.98 in SE 7.0 mph 12.0 mph 71 % 0.00 in 383 W/m2
11:21 71.6 °F 61.7 °F 29.99 in SE 6.0 mph 10.0 mph 71 % 0.00 in 582 W/m2
11:26 72.0 °F 62.0 °F 29.99 in SE 4.0 mph 8.0 mph 71 % 0.00 in 870 W/m2
11:31 72.9 °F 62.9 °F 29.99 in SE 5.0 mph 9.0 mph 71 % 0.00 in 835 W/m2
11:36 73.2 °F 62.4 °F 29.99 in SSE 5.0 mph 9.0 mph 69 % 0.00 in 497 W/m2
11:41 73.6 °F 62.4 °F 29.99 in South 5.0 mph 12.0 mph 68 % 0.00 in 413 W/m2
11:46 73.6 °F 62.4 °F 29.99 in South 5.0 mph 12.0 mph 68 % 0.00 in 431 W/m2
11:51 73.6 °F 62.4 °F 29.98 in SSE 5.0 mph 10.0 mph 68 % 0.00 in 383 W/m2
11:56 73.6 °F 62.4 °F 29.98 in SE 5.0 mph 11.0 mph 68 % 0.00 in 668 W/m2
12:01 73.8 °F 63.4 °F 29.98 in SE 5.0 mph 11.0 mph 70 % 0.00 in 490 W/m2
12:06 73.9 °F 62.7 °F 29.98 in SSE 5.0 mph 10.0 mph 68 % 0.00 in 712 W/m2
12:11 73.9 °F 63.1 °F 29.98 in SSE 5.0 mph 10.0 mph 69 % 0.00 in 643 W/m2
12:16 74.3 °F 63.1 °F 29.98 in SSE 5.0 mph 9.0 mph 68 % 0.00 in 466 W/m2
12:21 74.5 °F 63.2 °F 29.98 in SSE 5.0 mph 10.0 mph 68 % 0.00 in 784 W/m2
12:23 74.5 °F 63.2 °F 29.98 in SSE 5.0 mph 10.0 mph 68 % 0.00 in 668 W/m2
12:28 74.8 °F 63.6 °F 29.98 in SSE 5.0 mph 10.0 mph 68 % 0.00 in 441 W/m2
12:33 75.0 °F 63.7 °F 29.98 in SSE 4.0 mph 8.0 mph 68 % 0.00 in 415 W/m2
12:38 75.2 °F 63.5 °F 29.98 in SSE 3.0 mph 7.0 mph 67 % 0.00 in 434 W/m2
12:43 75.0 °F 63.3 °F 29.98 in SSE 4.0 mph 7.0 mph 67 % 0.00 in 276 W/m2
12:48 74.8 °F 63.1 °F 29.97 in SSE 5.0 mph 8.0 mph 67 % 0.00 in 327 W/m2
12:53 74.8 °F 63.6 °F 29.97 in SSE 5.0 mph 8.0 mph 68 % 0.00 in 369 W/m2
12:58 75.0 °F 63.7 °F 29.98 in SE 4.0 mph 7.0 mph 68 % 0.00 in 214 W/m2
13:03 75.0 °F 63.3 °F 29.96 in SE 4.0 mph 7.0 mph 67 % 0.00 in 128 W/m2
13:08 74.7 °F 63.4 °F 29.94 in ESE 4.0 mph 11.0 mph 68 % 0.00 in 176 W/m2
13:13 74.5 °F 64.1 °F 29.94 in ESE 6.0 mph 11.0 mph 70 % 0.00 in 241 W/m2
13:18 74.5 °F 64.1 °F 29.94 in ESE 6.0 mph 12.0 mph 70 % 0.00 in 302 W/m2
13:23 74.5 °F 64.1 °F 29.93 in ESE 6.0 mph 12.0 mph 70 % 0.00 in 374 W/m2
13:28 74.7 °F 64.2 °F 29.93 in ESE 7.0 mph 13.0 mph 70 % 0.00 in 462 W/m2
13:33 74.8 °F 64.4 °F 29.92 in SE 8.0 mph 15.0 mph 70 % 0.00 in 336 W/m2
13:38 74.8 °F 64.0 °F 29.92 in SE 9.0 mph 18.0 mph 69 % 0.00 in 253 W/m2
13:43 74.8 °F 64.0 °F 29.92 in SE 10.0 mph 18.0 mph 69 % 0.00 in 199 W/m2
13:48 74.7 °F 64.2 °F 29.91 in SE 9.0 mph 15.0 mph 70 % 0.00 in 241 W/m2
13:53 74.7 °F 64.2 °F 29.91 in SSE 10.0 mph 18.0 mph 70 % 0.00 in 188 W/m2
13:58 74.7 °F 64.6 °F 29.91 in SSE 9.0 mph 19.0 mph 71 % 0.00 in 294 W/m2
14:03 74.7 °F 64.6 °F 29.90 in SSE 8.0 mph 19.0 mph 71 % 0.00 in 283 W/m2
14:08 74.8 °F 64.8 °F 29.90 in SE 8.0 mph 14.0 mph 71 % 0.00 in 330 W/m2
14:13 75.2 °F 65.1 °F 29.90 in SE 7.0 mph 14.0 mph 71 % 0.00 in 541 W/m2
14:18 75.7 °F 64.8 °F 29.90 in SE 7.0 mph 15.0 mph 69 % 0.00 in 802 W/m2
14:23 76.3 °F 65.4 °F 29.90 in SSE 7.0 mph 15.0 mph 69 % 0.00 in 838 W/m2
14:28 77.0 °F 65.6 °F 29.90 in SE 8.0 mph 16.0 mph 68 % 0.00 in 786 W/m2
14:33 77.7 °F 65.9 °F 29.90 in SE 8.0 mph 16.0 mph 67 % 0.00 in 823 W/m2
14:38 78.4 °F 66.1 °F 29.90 in SSE 8.0 mph 13.0 mph 66 % 0.00 in 809 W/m2
14:41 78.8 °F 65.6 °F 29.90 in SSE 7.0 mph 13.0 mph 64 % 0.00 in 366 W/m2
14:44 79.0 °F 65.8 °F 29.90 in SSE 7.0 mph 12.0 mph 64 % 0.00 in 450 W/m2
14:50 79.3 °F 65.2 °F 29.90 in SSE 7.0 mph 13.0 mph 62 % 0.00 in 496 W/m2
15:00 79.3 °F 64.2 °F 29.90 in SSE 8.0 mph 14.0 mph 60 % 0.00 in 364 W/m2
15:05 79.3 °F 65.2 °F 29.90 in SE 5.0 mph 12.0 mph 62 % 0.00 in 443 W/m2
15:10 79.9 °F 65.2 °F 29.90 in SE 3.0 mph 8.0 mph 61 % 0.00 in 454 W/m2
15:15 80.2 °F 65.1 °F 29.90 in SE 4.0 mph 12.0 mph 60 % 0.00 in 635 W/m2
15:20 80.6 °F 64.9 °F 29.89 in SE 6.0 mph 12.0 mph 59 % 0.00 in 473 W/m2
15:25 81.0 °F 65.3 °F 29.89 in SSE 5.0 mph 10.0 mph 59 % 0.00 in 914 W/m2
15:30 81.3 °F 64.6 °F 29.89 in SSE 6.0 mph 12.0 mph 57 % 0.00 in 814 W/m2
15:35 81.5 °F 64.3 °F 29.89 in SSE 7.0 mph 12.0 mph 56 % 0.00 in 809 W/m2
15:40 82.0 °F 63.8 °F 29.89 in SSE 6.0 mph 10.0 mph 54 % 0.00 in 469 W/m2
15:45 82.4 °F 63.5 °F 29.89 in SSE 7.0 mph 11.0 mph 53 % 0.00 in 376 W/m2
15:50 82.2 °F 63.4 °F 29.88 in SSE 7.0 mph 11.0 mph 53 % 0.00 in 327 W/m2
15:55 82.0 °F 62.7 °F 29.89 in SSE 6.0 mph 11.0 mph 52 % 0.00 in 309 W/m2
16:00 81.9 °F 60.8 °F 29.89 in SSE 7.0 mph 15.0 mph 49 % 0.00 in 327 W/m2
16:05 81.9 °F 60.8 °F 29.89 in SSE 8.0 mph 15.0 mph 49 % 0.00 in 334 W/m2
16:10 81.9 °F 62.0 °F 29.89 in SSE 7.0 mph 10.0 mph 51 % 0.00 in 309 W/m2
16:15 81.7 °F 61.8 °F 29.89 in South 7.0 mph 12.0 mph 51 % 0.00 in 234 W/m2
16:20 81.7 °F 62.3 °F 29.89 in South 7.0 mph 12.0 mph 52 % 0.00 in 179 W/m2
16:25 81.3 °F 62.6 °F 29.89 in SSE 7.0 mph 12.0 mph 53 % 0.00 in 107 W/m2
16:30 81.1 °F 62.9 °F 29.89 in SSE 6.0 mph 10.0 mph 54 % 0.00 in 93 W/m2
16:31 81.1 °F 62.4 °F 29.89 in SSE 6.0 mph 10.0 mph 53 % 0.00 in 95 W/m2
16:36 80.8 °F 63.1 °F 29.89 in South 6.0 mph 10.0 mph 55 % 0.00 in 134 W/m2
16:41 80.6 °F 63.5 °F 29.89 in South 6.0 mph 11.0 mph 56 % 0.00 in 167 W/m2
16:46 80.4 °F 63.8 °F 29.89 in SSE 7.0 mph 13.0 mph 57 % 0.00 in 181 W/m2
16:51 80.1 °F 63.5 °F 29.88 in SSE 8.0 mph 15.0 mph 57 % 0.00 in 158 W/m2
16:56 79.9 °F 64.3 °F 29.88 in SSE 7.0 mph 15.0 mph 59 % 0.00 in 160 W/m2
17:01 79.9 °F 64.8 °F 29.88 in SSE 6.0 mph 12.0 mph 60 % 0.00 in 146 W/m2
17:06 79.7 °F 65.1 °F 29.87 in SSE 6.0 mph 12.0 mph 61 % 0.00 in 111 W/m2
17:11 79.5 °F 65.4 °F 29.87 in South 6.0 mph 12.0 mph 62 % 0.00 in 84 W/m2
17:16 79.3 °F 65.6 °F 29.86 in South 5.0 mph 10.0 mph 63 % 0.00 in 86 W/m2
17:21 79.0 °F 65.8 °F 29.85 in SSE 7.0 mph 14.0 mph 64 % 0.00 in 107 W/m2
17:26 78.4 °F 65.7 °F 29.85 in SE 9.0 mph 14.0 mph 65 % 0.00 in 146 W/m2
17:31 78.1 °F 65.8 °F 29.84 in SE 9.0 mph 14.0 mph 66 % 0.00 in 155 W/m2
17:36 77.9 °F 65.6 °F 29.83 in SSE 9.0 mph 18.0 mph 66 % 0.00 in 165 W/m2
17:41 77.7 °F 65.9 °F 29.83 in SE 9.0 mph 18.0 mph 67 % 0.00 in 178 W/m2
17:42 77.7 °F 66.3 °F 29.83 in SE 9.0 mph 18.0 mph 68 % 0.00 in 186 W/m2
17:47 77.9 °F 66.5 °F 29.84 in SE 8.0 mph 15.0 mph 68 % 0.00 in 352 W/m2
17:52 78.1 °F 66.7 °F 29.85 in SE 8.0 mph 15.0 mph 68 % 0.00 in 223 W/m2
17:57 78.3 °F 67.3 °F 29.85 in SE 7.0 mph 11.0 mph 69 % 0.00 in 454 W/m2
18:02 78.6 °F 67.2 °F 29.84 in SSE 7.0 mph 13.0 mph 68 % 0.00 in 338 W/m2
18:07 79.0 °F 67.5 °F 29.84 in SSE 7.0 mph 13.0 mph 68 % 0.00 in 450 W/m2
18:12 79.3 °F 67.4 °F 29.84 in SSE 8.0 mph 13.0 mph 67 % 0.00 in 373 W/m2
18:17 79.2 °F 67.3 °F 29.84 in SSE 8.0 mph 13.0 mph 67 % 0.00 in 116 W/m2
18:22 79.0 °F 67.1 °F 29.84 in SSE 7.0 mph 13.0 mph 67 % 0.00 in 113 W/m2
18:27 78.6 °F 66.7 °F 29.84 in SSE 7.0 mph 11.0 mph 67 % 0.00 in 114 W/m2
18:32 78.4 °F 67.0 °F 29.84 in SSE 6.0 mph 11.0 mph 68 % 0.00 in 134 W/m2
18:37 78.4 °F 67.0 °F 29.84 in SSE 6.0 mph 10.0 mph 68 % 0.00 in 353 W/m2
18:43 78.6 °F 67.2 °F 29.85 in SSE 5.0 mph 10.0 mph 68 % 0.00 in 181 W/m2
18:48 78.6 °F 67.2 °F 29.84 in SSE 5.0 mph 9.0 mph 68 % 0.00 in 132 W/m2
18:53 78.6 °F 67.2 °F 29.84 in SE 5.0 mph 9.0 mph 68 % 0.00 in 114 W/m2
18:58 78.6 °F 67.6 °F 29.84 in SE 4.0 mph 9.0 mph 69 % 0.00 in 113 W/m2
19:03 78.6 °F 67.6 °F 29.84 in SE 3.0 mph 7.0 mph 69 % 0.00 in 91 W/m2
19:08 78.4 °F 67.4 °F 29.84 in SSE 3.0 mph 6.0 mph 69 % 0.00 in 88 W/m2
19:13 78.4 °F 67.4 °F 29.84 in SSE 4.0 mph 6.0 mph 69 % 0.00 in 104 W/m2
19:18 78.3 °F 67.7 °F 29.84 in SSE 3.0 mph 6.0 mph 70 % 0.00 in 93 W/m2
19:23 78.3 °F 67.7 °F 29.84 in SSE 3.0 mph 6.0 mph 70 % 0.00 in 60 W/m2
19:28 78.4 °F 67.8 °F 29.84 in SE 2.0 mph 6.0 mph 70 % 0.00 in 46 W/m2
19:33 78.3 °F 67.7 °F 29.85 in SSE 1.0 mph 5.0 mph 70 % 0.00 in 33 W/m2
19:38 78.3 °F 67.7 °F 29.85 in SSE 1.0 mph 2.0 mph 70 % 0.00 in 18 W/m2
19:43 78.3 °F 67.7 °F 29.85 in SSE 1.0 mph 5.0 mph 70 % 0.00 in 12 W/m2
19:48 78.1 °F 67.9 °F 29.84 in SSE 2.0 mph 5.0 mph 71 % 0.00 in 12 W/m2
19:53 78.1 °F 68.3 °F 29.84 in SSE 1.0 mph 5.0 mph 72 % 0.00 in 14 W/m2
19:58 77.7 °F 68.4 °F 29.83 in SSE 2.0 mph 5.0 mph 73 % 0.00 in 19 W/m2
20:03 77.5 °F 68.2 °F 29.81 in SE 3.0 mph 8.0 mph 73 % 0.00 in 33 W/m2
20:08 77.4 °F 68.4 °F 29.81 in SE 6.0 mph 10.0 mph 74 % 0.00 in 53 W/m2
20:13 77.0 °F 68.5 °F 29.81 in SE 7.0 mph 10.0 mph 75 % 0.00 in 56 W/m2
20:18 76.8 °F 68.7 °F 29.81 in SE 5.0 mph 9.0 mph 76 % 0.00 in 58 W/m2
20:23 76.6 °F 68.5 °F 29.81 in SE 3.0 mph 9.0 mph 76 % 0.00 in 70 W/m2
20:28 76.6 °F 68.5 °F 29.81 in ESE 2.0 mph 7.0 mph 76 % 0.00 in 67 W/m2
20:33 76.6 °F 68.5 °F 29.81 in SE 1.0 mph 6.0 mph 76 % 0.00 in 56 W/m2
20:38 76.6 °F 69.3 °F 29.81 in SSE 1.0 mph 7.0 mph 78 % 0.02 in 44 W/m2
20:43 76.3 °F 69.3 °F 29.81 in SSE 1.0 mph 7.0 mph 79 % 0.02 in 35 W/m2
20:48 75.9 °F 68.9 °F 29.81 in Calm   4.0 mph 79 % 0.02 in 30 W/m2
20:53 75.6 °F 69.0 °F 29.80 in East 1.0 mph 4.0 mph 80 % 0.02 in 25 W/m2
20:58 75.2 °F 69.0 °F 29.81 in East 1.0 mph 4.0 mph 81 % 0.02 in 19 W/m2
21:03 75.0 °F 69.1 °F 29.80 in East 1.0 mph 4.0 mph 82 % 0.02 in 14 W/m2
21:08 74.7 °F 69.2 °F 29.80 in East 1.0 mph 4.0 mph 83 % 0.02 in 9 W/m2
21:13 74.5 °F 69.0 °F 29.81 in East 1.0 mph 3.0 mph 83 % 0.02 in 7 W/m2
21:18 74.3 °F 68.8 °F 29.81 in East 1.0 mph 2.0 mph 83 % 0.02 in 9 W/m2
21:24 74.1 °F 69.0 °F 29.80 in East 1.0 mph 4.0 mph 84 % 0.02 in 12 W/m2
21:29 73.9 °F 68.8 °F 29.81 in East 1.0 mph 4.0 mph 84 % 0.02 in 12 W/m2
21:34 73.8 °F 68.6 °F 29.80 in Calm   1.0 mph 84 % 0.01 in 7 W/m2
21:39 73.8 °F 69.0 °F 29.80 in Calm   2.0 mph 85 % 0.00 in 5 W/m2
21:44 73.6 °F 68.8 °F 29.80 in Calm   2.0 mph 85 % 0.00 in 0 W/m2
21:49 73.4 °F 69.0 °F 29.80 in Calm   1.0 mph 86 % 0.00 in 0 W/m2
21:54 73.2 °F 68.8 °F 29.80 in Calm     86 % 0.00 in 0 W/m2
21:59 73.2 °F 68.8 °F 29.80 in Calm     86 % 0.00 in 0 W/m2
22:04 73.0 °F 68.9 °F 29.80 in Calm     87 % 0.00 in 0 W/m2
22:09 73.0 °F 68.9 °F 29.80 in Calm     87 % 0.00 in 0 W/m2
22:14 72.9 °F 68.8 °F 29.80 in Calm   2.0 mph 87 % 0.00 in 0 W/m2
22:19 72.7 °F 68.9 °F 29.80 in Calm   2.0 mph 88 % 0.00 in 0 W/m2
22:24 72.5 °F 68.7 °F 29.80 in Calm   2.0 mph 88 % 0.00 in 0 W/m2
22:29 72.3 °F 68.6 °F 29.79 in Calm   2.0 mph 88 % 0.00 in 0 W/m2
22:34 72.3 °F 68.6 °F 29.79 in Calm   2.0 mph 88 % 0.00 in 0 W/m2
22:39 72.1 °F 68.7 °F 29.79 in Calm   1.0 mph 89 % 0.00 in 0 W/m2
22:44 72.1 °F 68.7 °F 29.79 in Calm   1.0 mph 89 % 0.00 in 0 W/m2
22:46 72.0 °F 68.5 °F 29.79 in Calm   1.0 mph 89 % 0.00 in 0 W/m2
22:51 72.0 °F 68.5 °F 29.79 in Calm     89 % 0.00 in 0 W/m2
22:56 71.8 °F 68.4 °F 29.79 in Calm     89 % 0.00 in 0 W/m2
23:01 71.6 °F 68.2 °F 29.79 in Calm     89 % 0.00 in 0 W/m2
23:06 71.4 °F 68.3 °F 29.79 in Calm   2.0 mph 90 % 0.00 in 0 W/m2
23:11 71.2 °F 68.2 °F 29.78 in Calm   2.0 mph 90 % 0.00 in 0 W/m2
23:16 71.2 °F 68.2 °F 29.78 in East 1.0 mph 3.0 mph 90 % 0.00 in 0 W/m2
23:21 71.1 °F 68.0 °F 29.78 in East 1.0 mph 3.0 mph 90 % 0.00 in 0 W/m2
23:26 71.1 °F 68.0 °F 29.78 in Calm   3.0 mph 90 % 0.00 in 0 W/m2
23:31 70.9 °F 67.8 °F 29.78 in Calm     90 % 0.00 in 0 W/m2
23:36 70.7 °F 67.9 °F 29.78 in Calm   2.0 mph 91 % 0.00 in 0 W/m2
23:41 70.7 °F 67.9 °F 29.77 in Calm   2.0 mph 91 % 0.00 in 0 W/m2
23:46 70.5 °F 67.8 °F 29.77 in East 1.0 mph 5.0 mph 91 % 0.00 in 0 W/m2
23:51 70.5 °F 67.8 °F 29.77 in East 2.0 mph 5.0 mph 91 % 0.00 in 0 W/m2
23:56 70.5 °F 67.8 °F 29.77 in East 2.0 mph 4.0 mph 91 % 0.00 in 0 W/m2
Delerius-Weather
Compliments of Weather Underground - 2.25 mb

Data updates at regular intervals.